createdAt,value
2023-01-27T00:02:40.663Z,2.30
2023-01-27T00:08:02.557Z,2.32
2023-01-27T00:13:27.551Z,2.32
2023-01-27T00:18:49.245Z,2.13
2023-01-27T00:24:35.241Z,2.04
2023-01-27T00:29:57.383Z,2.08
2023-01-27T00:35:21.929Z,2.07
2023-01-27T00:41:04.005Z,1.94
2023-01-27T00:46:27.016Z,1.81
2023-01-27T00:51:51.919Z,1.67
2023-01-27T00:57:14.087Z,1.53
2023-01-27T01:02:36.170Z,1.37
2023-01-27T01:07:58.134Z,1.27
2023-01-27T01:13:21.821Z,1.28
2023-01-27T01:18:44.241Z,1.32
2023-01-27T01:24:06.791Z,1.26
2023-01-27T01:29:28.807Z,1.21
2023-01-27T01:34:50.565Z,1.19
2023-01-27T01:40:13.005Z,1.26
2023-01-27T01:45:44.330Z,1.24
2023-01-27T01:51:35.566Z,1.24
2023-01-27T01:57:06.131Z,1.17
2023-01-27T02:02:28.420Z,1.07
2023-01-27T02:08:02.292Z,1.15
2023-01-27T02:13:24.484Z,1.20
2023-01-27T02:18:46.662Z,1.26
2023-01-27T02:24:12.724Z,1.31
2023-01-27T02:29:34.798Z,1.36
2023-01-27T02:34:57.121Z,1.35
2023-01-27T02:40:19.237Z,1.31
2023-01-27T02:45:40.686Z,1.24
2023-01-27T02:51:02.353Z,1.18
2023-01-27T02:56:25.626Z,1.00
2023-01-27T03:01:50.649Z,0.89
2023-01-27T03:07:12.620Z,0.88
2023-01-27T03:12:34.821Z,0.82
2023-01-27T03:18:13.600Z,0.63
2023-01-27T03:23:35.675Z,0.51
2023-01-27T03:29:16.492Z,0.49
2023-01-27T03:34:38.916Z,0.41
2023-01-27T03:40:26.995Z,0.31
2023-01-27T03:46:09.335Z,0.45
2023-01-27T03:51:31.184Z,0.43
2023-01-27T03:56:53.175Z,0.45
2023-01-27T04:02:33.693Z,0.58
2023-01-27T04:07:55.630Z,0.74
2023-01-27T04:13:17.584Z,0.75
2023-01-27T04:18:39.599Z,0.76
2023-01-27T04:24:01.965Z,0.79
2023-01-27T04:29:26.661Z,0.78
2023-01-27T04:34:48.323Z,0.76
2023-01-27T04:40:10.875Z,0.75
2023-01-27T04:45:32.806Z,0.75
2023-01-27T04:50:54.646Z,0.76
2023-01-27T04:56:37.081Z,0.66
2023-01-27T05:01:59.658Z,0.61
2023-01-27T05:07:21.452Z,0.64
2023-01-27T05:12:43.334Z,0.61
2023-01-27T05:18:05.602Z,0.53
2023-01-27T05:23:36.997Z,0.50
2023-01-27T05:28:59.588Z,0.44
2023-01-27T05:34:21.344Z,0.40
2023-01-27T05:39:43.256Z,0.41
2023-01-27T05:45:05.609Z,0.41
2023-01-27T05:50:27.403Z,0.46
2023-01-27T05:55:49.922Z,0.38
2023-01-27T06:01:11.540Z,0.31
2023-01-27T06:06:34.046Z,0.27
2023-01-27T06:11:55.528Z,0.19
2023-01-27T06:17:17.467Z,0.16
2023-01-27T06:22:39.389Z,0.10
2023-01-27T06:28:03.452Z,0.14
2023-01-27T06:33:25.081Z,0.07
2023-01-27T06:38:47.106Z,0.03
2023-01-27T06:44:08.596Z,0.07
2023-01-27T06:49:31.471Z,0.08
2023-01-27T06:54:53.425Z,0.02
2023-01-27T07:00:16.853Z,0.01
2023-01-27T07:05:40.059Z,0.05
2023-01-27T07:11:05.361Z,0.07
2023-01-27T07:16:27.105Z,0.07
2023-01-27T07:21:48.867Z,0.12
2023-01-27T07:27:10.727Z,0.13
2023-01-27T07:32:33.549Z,0.08
2023-01-27T07:37:58.223Z,0.06
2023-01-27T07:43:20.004Z,0.13
2023-01-27T07:48:42.056Z,0.07
2023-01-27T07:54:05.471Z,0.00
2023-01-27T07:59:28.090Z,0.12
2023-01-27T08:04:53.288Z,0.21
2023-01-27T08:10:17.842Z,0.27
2023-01-27T08:15:39.800Z,0.26
2023-01-27T08:21:03.831Z,0.26
2023-01-27T08:26:27.226Z,0.32
2023-01-27T08:31:49.467Z,0.39
2023-01-27T08:37:11.731Z,0.34
2023-01-27T08:42:33.827Z,0.30
2023-01-27T08:47:55.992Z,0.37
2023-01-27T08:53:22.135Z,0.34
2023-01-27T08:58:45.863Z,0.31
2023-01-27T09:04:10.030Z,0.29
2023-01-27T09:09:31.809Z,0.28
2023-01-27T09:14:54.269Z,0.37
2023-01-27T09:20:16.614Z,0.41
2023-01-27T09:25:38.517Z,0.40
2023-01-27T09:31:03.409Z,0.41
2023-01-27T09:36:26.003Z,0.38
2023-01-27T09:42:32.896Z,0.35
2023-01-27T09:48:10.780Z,0.25
2023-01-27T09:53:48.962Z,0.17
2023-01-27T09:59:25.644Z,0.13
2023-01-27T10:04:59.535Z,0.08
2023-01-27T10:10:37.796Z,0.08
2023-01-27T10:16:23.725Z,0.14
2023-01-27T10:21:59.922Z,0.24
2023-01-27T10:27:23.570Z,0.48
2023-01-27T10:32:54.988Z,0.56
2023-01-27T10:38:40.225Z,0.71
2023-01-27T10:44:07.950Z,0.81
2023-01-27T10:49:32.058Z,0.84
2023-01-27T10:55:16.811Z,0.94
2023-01-27T11:01:18.899Z,1.09
2023-01-27T11:06:31.231Z,1.16
2023-01-27T11:11:54.195Z,1.11
2023-01-27T11:17:29.269Z,1.09
2023-01-27T11:23:18.019Z,1.08
2023-01-27T11:28:56.870Z,1.08
2023-01-27T11:34:21.419Z,1.16
2023-01-27T11:39:43.144Z,1.09
2023-01-27T11:45:05.581Z,0.89
2023-01-27T11:50:33.228Z,0.92
2023-01-27T11:56:03.086Z,0.97
2023-01-27T12:01:44.854Z,1.03
2023-01-27T12:07:33.914Z,1.12
2023-01-27T12:12:57.249Z,1.19
2023-01-27T12:18:19.851Z,1.31
2023-01-27T12:23:49.295Z,1.39
2023-01-27T12:29:21.158Z,1.45
2023-01-27T12:34:46.235Z,1.45
2023-01-27T12:40:16.210Z,1.43
2023-01-27T12:45:38.890Z,1.51
2023-01-27T12:51:12.273Z,1.57
2023-01-27T12:56:34.745Z,1.41
2023-01-27T13:02:19.504Z,1.34
2023-01-27T13:07:47.273Z,1.27
2023-01-27T13:13:18.381Z,1.33
2023-01-27T13:18:42.494Z,1.40
2023-01-27T13:24:06.685Z,1.45
2023-01-27T13:29:32.760Z,1.42
2023-01-27T13:35:05.735Z,1.35
2023-01-27T13:40:35.315Z,1.33
2023-01-27T13:46:22.364Z,1.37
2023-01-27T13:51:44.229Z,1.42
2023-01-27T13:57:33.583Z,1.44
2023-01-27T14:03:24.652Z,1.41
2023-01-27T14:09:00.718Z,1.33
2023-01-27T14:14:55.998Z,1.29
2023-01-27T14:20:33.976Z,1.27
2023-01-27T14:26:03.217Z,1.25
2023-01-27T14:31:52.970Z,1.24
2023-01-27T14:37:35.631Z,1.27
2023-01-27T14:43:03.390Z,1.25
2023-01-27T14:48:40.627Z,1.20
2023-01-27T14:54:45.939Z,1.17
2023-01-27T15:00:43.751Z,1.03
2023-01-27T15:06:26.624Z,1.12
2023-01-27T15:12:25.915Z,1.20
2023-01-27T15:18:09.213Z,1.23
2023-01-27T15:23:45.967Z,1.19
2023-01-27T15:29:12.801Z,1.16
2023-01-27T15:34:34.487Z,1.15
2023-01-27T15:40:15.518Z,1.10
2023-01-27T15:45:41.729Z,1.04
2023-01-27T15:51:06.790Z,1.01
2023-01-27T15:56:53.463Z,1.06
2023-01-27T16:02:23.831Z,1.09
2023-01-27T16:07:50.241Z,1.11
2023-01-27T16:13:14.837Z,1.17
2023-01-27T16:18:49.905Z,1.22
2023-01-27T16:24:23.456Z,1.21
2023-01-27T16:29:48.782Z,1.12
2023-01-27T16:35:21.376Z,1.04
2023-01-27T16:40:49.591Z,0.99
2023-01-27T16:46:25.344Z,0.97
2023-01-27T16:51:54.565Z,1.00
2023-01-27T16:57:25.183Z,0.99
2023-01-27T17:02:47.688Z,1.02
2023-01-27T17:08:24.330Z,1.10
2023-01-27T17:13:50.257Z,1.14
2023-01-27T17:19:21.911Z,1.12
2023-01-27T17:24:50.014Z,1.02
2023-01-27T17:30:18.589Z,0.94
2023-01-27T17:35:42.746Z,0.78
2023-01-27T17:41:04.493Z,0.77
2023-01-27T17:46:31.333Z,0.75
2023-01-27T17:51:55.786Z,0.85
2023-01-27T17:57:27.333Z,0.98
2023-01-27T18:02:54.314Z,1.02
2023-01-27T18:08:15.916Z,1.10
2023-01-27T18:13:40.106Z,1.14
2023-01-27T18:19:26.538Z,1.21
2023-01-27T18:24:56.732Z,1.14
2023-01-27T18:30:28.490Z,0.97
2023-01-27T18:35:58.275Z,0.95
2023-01-27T18:41:46.942Z,0.84
2023-01-27T18:47:19.390Z,0.79
2023-01-27T18:52:42.739Z,0.60
2023-01-27T18:58:06.319Z,0.50
2023-01-27T19:03:30.620Z,0.43
2023-01-27T19:08:53.157Z,0.26
2023-01-27T19:14:16.540Z,0.14
2023-01-27T19:19:38.355Z,0.11
2023-01-27T19:25:01.012Z,0.08
2023-01-27T19:30:25.276Z,0.11
2023-01-27T19:35:49.959Z,0.19
2023-01-27T19:41:12.593Z,0.30
2023-01-27T19:46:35.327Z,0.37
2023-01-27T19:51:59.059Z,0.34
2023-01-27T19:57:21.096Z,0.27
2023-01-27T20:02:44.525Z,0.25
2023-01-27T20:08:06.854Z,0.29
2023-01-27T20:13:28.564Z,0.21
2023-01-27T20:18:51.415Z,0.20
2023-01-27T20:24:17.736Z,0.20
2023-01-27T20:29:39.996Z,0.29
2023-01-27T20:35:02.027Z,0.30
2023-01-27T20:40:28.071Z,0.33
2023-01-27T20:45:49.495Z,0.33
2023-01-27T20:51:14.399Z,0.32
2023-01-27T20:56:36.563Z,0.34
2023-01-27T21:01:58.735Z,0.31
2023-01-27T21:07:22.327Z,0.35
2023-01-27T21:12:44.054Z,0.40
2023-01-27T21:18:08.517Z,0.40
2023-01-27T21:23:32.868Z,0.44
2023-01-27T21:28:54.761Z,0.47
2023-01-27T21:34:17.209Z,0.49
2023-01-27T21:39:39.124Z,0.49
2023-01-27T21:45:13.111Z,0.46
2023-01-27T21:50:35.633Z,0.49
2023-01-27T21:55:57.461Z,0.46
2023-01-27T22:01:19.681Z,0.56
2023-01-27T22:06:41.939Z,0.60
2023-01-27T22:12:05.188Z,0.68
2023-01-27T22:17:27.891Z,0.81
2023-01-27T22:22:51.290Z,0.86
2023-01-27T22:28:13.240Z,0.91
2023-01-27T22:33:35.672Z,0.94
2023-01-27T22:38:57.003Z,0.94
2023-01-27T22:44:20.353Z,0.99
2023-01-27T22:49:42.328Z,0.97
2023-01-27T22:55:06.485Z,0.97
2023-01-27T23:00:27.953Z,0.94
2023-01-27T23:05:50.137Z,0.94
2023-01-27T23:11:12.573Z,0.86
2023-01-27T23:16:34.474Z,0.79
2023-01-27T23:21:56.591Z,0.77
2023-01-27T23:27:18.479Z,0.85
2023-01-27T23:32:40.529Z,0.93
2023-01-27T23:38:02.949Z,0.95
2023-01-27T23:43:24.667Z,0.85
2023-01-27T23:48:50.909Z,0.79
2023-01-27T23:54:13.550Z,0.85
2023-01-27T23:59:35.556Z,0.80
